Time;durP1;ratioP1;P1;durP2;ratioP2;P2;SDS_P1;SDS_P2;PMS_P1;PMS_P2;Temp;Humidity;BMP_temperature;BMP_pressure;BME280_temperature;BME280_humidity;BME280_pressure;Samples;Min_cycle;Max_cycle;Signal;HPM_P1;HPM_P2
2024/02/03 00:00:28;;;;;;;6.25;3.17;;;9.10;99.90;;;;;;4980440;28;20032;-83
2024/02/03 00:02:54;;;;;;;6.40;3.30;;;9.10;99.90;;;;;;4980619;28;20023;-83
2024/02/03 00:05:19;;;;;;;6.07;3.28;;;9.20;99.90;;;;;;5012693;28;20057;-83
2024/02/03 00:07:46;;;;;;;5.40;3.35;;;9.20;99.90;;;;;;4990134;28;20058;-83
2024/02/03 00:10:12;;;;;;;6.00;3.20;;;9.20;99.90;;;;;;4996858;28;20431;-83
2024/02/03 00:12:37;;;;;;;5.10;3.40;;;9.20;99.90;;;;;;5012470;28;20030;-83
2024/02/03 00:15:04;;;;;;;5.43;3.40;;;9.20;99.90;;;;;;5013106;28;20074;-83
2024/02/03 00:17:29;;;;;;;5.68;3.25;;;9.20;99.90;;;;;;4997390;28;20026;-84
2024/02/03 00:19:55;;;;;;;6.43;3.53;;;9.10;99.90;;;;;;5013031;28;20387;-88
2024/02/03 00:22:21;;;;;;;5.30;3.70;;;9.20;99.90;;;;;;5013003;28;20022;-87
2024/02/03 00:24:48;;;;;;;5.15;3.28;;;9.20;99.90;;;;;;4997048;28;20099;-87
2024/02/03 00:27:14;;;;;;;5.45;3.55;;;9.20;99.90;;;;;;4993591;28;20035;-86
2024/02/03 00:29:39;;;;;;;7.65;3.15;;;9.20;99.90;;;;;;4996933;28;20077;-88
2024/02/03 00:32:06;;;;;;;5.85;3.28;;;9.20;99.90;;;;;;4997405;28;20030;-88
2024/02/03 00:34:31;;;;;;;6.22;3.78;;;9.20;99.90;;;;;;4995328;28;20041;-87
2024/02/03 00:36:57;;;;;;;6.03;3.60;;;9.20;99.90;;;;;;4997335;28;20031;-87
2024/02/03 00:39:23;;;;;;;5.93;3.17;;;9.20;99.90;;;;;;5012578;28;20174;-88
2024/02/03 00:41:48;;;;;;;5.57;3.08;;;9.20;99.90;;;;;;5012428;28;20073;-86
2024/02/03 00:44:15;;;;;;;4.68;3.30;;;9.20;99.90;;;;;;5012458;28;20121;-88
2024/02/03 00:46:40;;;;;;;7.68;3.97;;;9.20;99.90;;;;;;4987096;28;20030;-87
2024/02/03 00:49:06;;;;;;;8.00;3.35;;;9.20;99.90;;;;;;4996109;28;20105;-87
2024/02/03 00:51:32;;;;;;;6.10;3.33;;;9.20;99.90;;;;;;4996657;28;20058;-87
2024/02/03 00:53:57;;;;;;;8.35;3.90;;;9.20;99.90;;;;;;5012085;28;20030;-83
2024/02/03 00:56:23;;;;;;;5.65;3.60;;;9.20;99.90;;;;;;5012198;28;20071;-84
2024/02/03 00:58:49;;;;;;;6.40;3.47;;;9.20;99.90;;;;;;5011786;28;20695;-84
2024/02/03 01:01:14;;;;;;;6.38;3.55;;;9.20;99.90;;;;;;4992884;28;20057;-84
2024/02/03 01:03:42;;;;;;;5.82;3.40;;;9.20;99.90;;;;;;4987937;28;20030;-85
2024/02/03 01:06:08;;;;;;;8.15;3.95;;;9.20;99.90;;;;;;4995326;28;20108;-83
2024/02/03 01:08:33;;;;;;;6.50;3.72;;;9.10;99.90;;;;;;4995414;28;20064;-85
2024/02/03 01:10:59;;;;;;;5.93;3.40;;;9.10;99.90;;;;;;5011864;28;20490;-86
2024/02/03 01:13:25;;;;;;;8.82;4.07;;;9.20;99.90;;;;;;5011832;28;20489;-86
2024/02/03 01:15:50;;;;;;;6.68;3.78;;;9.10;99.90;;;;;;5011469;28;20038;-87
2024/02/03 01:18:16;;;;;;;6.30;3.67;;;9.10;99.90;;;;;;5012025;28;20030;-87
2024/02/03 01:20:42;;;;;;;6.55;3.83;;;9.10;99.90;;;;;;5011294;28;20395;-87
2024/02/03 01:23:07;;;;;;;6.97;3.60;;;9.10;99.90;;;;;;5011214;28;20085;-87
2024/02/03 01:25:33;;;;;;;5.72;3.38;;;9.10;99.90;;;;;;4995877;28;20065;-88
2024/02/03 01:27:59;;;;;;;7.50;3.88;;;9.10;99.90;;;;;;4996490;28;20081;-86
2024/02/03 01:30:24;;;;;;;6.07;3.80;;;9.10;99.90;;;;;;5011595;28;20022;-86
2024/02/03 01:32:50;;;;;;;7.15;3.75;;;9.10;99.90;;;;;;5010903;28;20029;-87
2024/02/03 01:35:16;;;;;;;6.15;3.33;;;9.10;99.90;;;;;;4992542;28;20040;-86
2024/02/03 01:37:41;;;;;;;5.57;3.60;;;9.10;99.90;;;;;;4987518;28;20038;-86
2024/02/03 01:40:08;;;;;;;7.20;3.85;;;9.10;99.90;;;;;;4996064;28;20054;-87
2024/02/03 01:42:33;;;;;;;6.35;3.65;;;9.10;99.90;;;;;;4994596;28;20437;-87
2024/02/03 01:44:59;;;;;;;5.95;3.38;;;9.10;99.90;;;;;;5011306;28;20066;-87
2024/02/03 01:47:25;;;;;;;5.05;3.22;;;9.10;99.90;;;;;;5011316;28;20026;-89
2024/02/03 01:49:52;;;;;;;4.35;2.92;;;9.10;99.90;;;;;;5011013;28;20065;-87
2024/02/03 01:52:18;;;;;;;6.93;3.50;;;9.10;99.90;;;;;;4995977;28;20030;-87
2024/02/03 01:54:45;;;;;;;4.68;3.20;;;9.10;99.90;;;;;;4987909;28;20080;-87
2024/02/03 01:57:12;;;;;;;6.05;3.50;;;9.00;99.90;;;;;;4994462;28;20106;-87
2024/02/03 01:59:37;;;;;;;6.20;3.15;;;9.00;99.90;;;;;;4986791;28;20208;-87
2024/02/03 02:02:03;;;;;;;5.93;3.22;;;9.00;99.90;;;;;;4994932;28;20475;-86
2024/02/03 02:04:30;;;;;;;6.40;3.50;;;9.00;99.90;;;;;;4994381;28;20573;-87
2024/02/03 02:06:56;;;;;;;5.80;3.28;;;9.00;99.90;;;;;;4988884;28;20105;-86
2024/02/03 02:09:23;;;;;;;5.07;3.28;;;9.00;99.90;;;;;;4994569;28;20026;-88
2024/02/03 02:11:51;;;;;;;6.15;3.30;;;9.00;99.90;;;;;;4995224;28;20094;-84
2024/02/03 02:14:18;;;;;;;5.70;3.15;;;9.00;99.90;;;;;;4995497;28;20080;-85
2024/02/03 02:16:44;;;;;;;8.07;3.17;;;9.00;99.90;;;;;;4987269;28;20065;-87
2024/02/03 02:19:10;;;;;;;5.53;3.40;;;9.00;99.90;;;;;;4994446;28;20023;-85
2024/02/03 02:21:35;;;;;;;7.18;3.20;;;9.00;99.90;;;;;;4995031;28;20030;-85
2024/02/03 02:24:01;;;;;;;4.40;2.80;;;9.00;99.90;;;;;;5010345;28;20121;-86
2024/02/03 02:26:27;;;;;;;4.85;3.05;;;9.00;99.90;;;;;;5010652;28;20034;-85
2024/02/03 02:28:53;;;;;;;4.88;2.80;;;9.00;99.90;;;;;;5010220;28;20026;-85
2024/02/03 02:31:18;;;;;;;4.78;3.30;;;9.00;99.90;;;;;;5010611;28;20022;-90
2024/02/03 02:33:44;;;;;;;6.30;3.35;;;9.00;99.90;;;;;;5010264;28;20027;-89
2024/02/03 02:36:09;;;;;;;5.57;3.30;;;8.90;99.90;;;;;;5010441;28;20034;-89
2024/02/03 02:38:35;;;;;;;4.93;3.10;;;8.90;99.90;;;;;;5010141;28;20117;-93
2024/02/03 02:41:01;;;;;;;5.75;2.72;;;8.90;99.90;;;;;;4995273;28;20023;-87
2024/02/03 02:43:27;;;;;;;4.97;3.22;;;8.90;99.90;;;;;;5010478;28;20089;-84
2024/02/03 02:45:52;;;;;;;7.22;3.50;;;8.90;99.90;;;;;;5009861;28;20133;-84
2024/02/03 02:48:18;;;;;;;7.95;3.90;;;8.90;99.90;;;;;;5010059;28;20467;-84
2024/02/03 02:50:44;;;;;;;9.43;3.53;;;8.90;99.90;;;;;;4986041;28;20030;-85
2024/02/03 02:53:09;;;;;;;6.28;3.45;;;8.90;99.90;;;;;;4993669;28;20026;-85
2024/02/03 02:55:35;;;;;;;6.68;3.83;;;8.90;99.90;;;;;;4985903;28;20149;-84
2024/02/03 02:58:01;;;;;;;4.63;2.83;;;8.90;99.90;;;;;;4993055;28;20034;-84
2024/02/03 03:00:27;;;;;;;5.20;3.10;;;8.90;99.90;;;;;;4993946;28;20041;-88
2024/02/03 03:02:53;;;;;;;6.90;3.13;;;8.90;99.90;;;;;;5009621;28;20022;-87
2024/02/03 03:05:18;;;;;;;5.40;3.00;;;8.90;99.90;;;;;;5009463;28;20049;-90
2024/02/03 03:07:44;;;;;;;5.20;3.35;;;8.90;99.90;;;;;;5009289;28;20030;-89
2024/02/03 03:10:10;;;;;;;5.35;3.05;;;8.90;99.90;;;;;;5009562;28;20023;-90
2024/02/03 03:12:36;;;;;;;4.95;3.17;;;8.90;99.90;;;;;;4985724;28;20513;-90
2024/02/03 03:15:02;;;;;;;5.50;3.78;;;8.90;99.90;;;;;;4993148;28;20084;-91
2024/02/03 03:17:28;;;;;;;6.72;3.00;;;8.90;99.90;;;;;;4993520;28;20467;-90
2024/02/03 03:19:54;;;;;;;4.78;2.88;;;8.90;99.90;;;;;;4987184;28;20026;-91
2024/02/03 03:22:19;;;;;;;5.28;3.20;;;8.90;99.90;;;;;;4993814;28;20022;-89
2024/02/03 03:24:45;;;;;;;7.13;3.35;;;8.90;99.90;;;;;;5009373;28;20031;-89
2024/02/03 03:27:11;;;;;;;7.00;2.90;;;8.90;99.90;;;;;;4994323;28;20023;-91
2024/02/03 03:29:37;;;;;;;4.50;2.90;;;8.90;99.90;;;;;;4985293;28;20030;-90
2024/02/03 03:32:03;;;;;;;4.47;2.72;;;8.90;99.90;;;;;;4993758;28;20026;-90
2024/02/03 03:34:29;;;;;;;3.55;2.47;;;8.90;99.90;;;;;;4992346;28;20034;-91
2024/02/03 03:36:54;;;;;;;4.57;2.78;;;8.80;99.90;;;;;;4987101;28;20053;-87
2024/02/03 03:39:20;;;;;;;6.60;2.90;;;8.90;99.90;;;;;;4993418;28;20141;-84
2024/02/03 03:41:46;;;;;;;3.95;2.55;;;8.90;99.90;;;;;;5009200;28;20033;-86
2024/02/03 03:44:12;;;;;;;4.00;2.80;;;8.90;99.90;;;;;;4990152;28;20383;-87
2024/02/03 03:46:38;;;;;;;6.15;2.90;;;8.90;99.90;;;;;;4985569;28;20023;-87
2024/02/03 03:49:04;;;;;;;4.22;2.60;;;8.80;99.90;;;;;;4992873;28;20054;-87
2024/02/03 03:51:31;;;;;;;3.78;2.50;;;8.90;99.90;;;;;;4993151;28;20062;-87
2024/02/03 03:53:59;;;;;;;5.03;2.80;;;8.80;99.90;;;;;;4987654;28;20497;-87
2024/02/03 03:56:24;;;;;;;4.35;2.50;;;8.80;99.90;;;;;;4993347;28;20062;-87
2024/02/03 03:58:50;;;;;;;4.28;2.53;;;8.80;99.90;;;;;;5008793;28;20030;-86
2024/02/03 04:01:16;;;;;;;4.47;2.90;;;8.80;99.90;;;;;;4990702;28;20018;-87
2024/02/03 04:03:41;;;;;;;4.88;2.67;;;8.80;99.90;;;;;;5009255;28;20041;-88
2024/02/03 04:06:07;;;;;;;5.78;3.08;;;8.80;99.90;;;;;;5008854;28;20097;-86
2024/02/03 04:08:33;;;;;;;4.68;2.88;;;8.80;99.90;;;;;;5009570;28;20026;-88
2024/02/03 04:10:59;;;;;;;4.47;2.75;;;8.80;99.90;;;;;;5009063;28;20128;-85
2024/02/03 04:13:24;;;;;;;4.32;2.60;;;8.80;99.90;;;;;;4991990;28;20486;-84
2024/02/03 04:15:50;;;;;;;6.60;3.20;;;8.80;99.90;;;;;;5008971;28;20471;-85
2024/02/03 04:18:16;;;;;;;4.65;2.90;;;8.80;99.90;;;;;;5009265;28;20037;-83
2024/02/03 04:20:41;;;;;;;4.47;2.80;;;8.80;99.90;;;;;;5011560;28;20057;-88
2024/02/03 04:23:07;;;;;;;4.13;2.58;;;8.80;99.90;;;;;;4992429;28;20485;-87
2024/02/03 04:25:32;;;;;;;5.32;2.90;;;8.80;99.90;;;;;;4996575;28;20129;-87
2024/02/03 04:27:58;;;;;;;4.85;3.03;;;8.80;99.90;;;;;;5012564;28;20026;-88
2024/02/03 04:30:23;;;;;;;6.38;3.28;;;8.80;99.90;;;;;;5012675;28;20113;-88
2024/02/03 04:32:49;;;;;;;5.53;2.90;;;8.80;99.90;;;;;;5012649;28;20037;-88
2024/02/03 04:35:15;;;;;;;5.25;2.90;;;8.80;99.90;;;;;;5012522;28;20494;-88
2024/02/03 04:37:42;;;;;;;4.28;2.80;;;8.70;99.90;;;;;;5012526;28;20031;-88
2024/02/03 04:40:08;;;;;;;4.85;3.15;;;8.80;99.90;;;;;;4996785;28;20105;-88
2024/02/03 04:42:34;;;;;;;5.72;2.95;;;8.70;99.90;;;;;;4996200;28;20109;-87
2024/02/03 04:44:59;;;;;;;6.82;3.35;;;8.80;99.90;;;;;;5012556;28;20517;-86
2024/02/03 04:47:25;;;;;;;4.72;2.92;;;8.80;99.90;;;;;;5014392;28;20114;-85
2024/02/03 04:49:50;;;;;;;5.35;3.20;;;8.70;99.90;;;;;;4991842;28;20022;-87
2024/02/03 04:52:16;;;;;;;6.13;3.25;;;8.80;99.90;;;;;;5001130;28;20038;-86
2024/02/03 04:54:42;;;;;;;5.22;3.08;;;8.70;99.90;;;;;;5018679;28;20386;-87
2024/02/03 04:57:08;;;;;;;4.30;2.80;;;8.80;99.90;;;;;;5000653;28;20030;-86
2024/02/03 04:59:33;;;;;;;6.38;3.15;;;8.80;99.90;;;;;;5015190;28;20030;-86
2024/02/03 05:01:59;;;;;;;5.00;3.00;;;8.80;99.90;;;;;;5016137;28;20054;-85
2024/02/03 05:04:24;;;;;;;8.60;2.53;;;8.80;99.90;;;;;;5016940;28;20128;-87
2024/02/03 05:06:50;;;;;;;4.60;2.90;;;8.70;99.90;;;;;;5021117;28;20034;-89
2024/02/03 05:09:15;;;;;;;5.97;3.10;;;8.80;99.90;;;;;;5024556;28;20026;-87
2024/02/03 05:11:41;;;;;;;4.78;2.45;;;8.70;99.90;;;;;;5000449;28;20026;-88
2024/02/03 05:14:07;;;;;;;5.57;2.95;;;8.70;99.90;;;;;;5007533;28;20030;-88
2024/02/03 05:16:32;;;;;;;4.65;2.67;;;8.70;99.90;;;;;;5008074;28;20467;-88
2024/02/03 05:18:58;;;;;;;7.00;3.03;;;8.70;99.90;;;;;;5023741;28;20026;-88
2024/02/03 05:21:23;;;;;;;5.22;3.00;;;8.70;99.90;;;;;;4996495;28;20030;-89
2024/02/03 05:23:49;;;;;;;4.93;2.65;;;8.70;99.90;;;;;;5011829;28;20030;-90
2024/02/03 05:26:15;;;;;;;4.72;2.80;;;8.70;99.90;;;;;;5012020;28;20463;-89
2024/02/03 05:28:40;;;;;;;5.78;2.88;;;8.70;99.90;;;;;;5011808;28;20034;-88
2024/02/03 05:31:06;;;;;;;5.80;2.78;;;8.70;99.90;;;;;;4995655;28;20038;-84
2024/02/03 05:33:32;;;;;;;6.78;3.40;;;8.70;99.90;;;;;;5011562;28;20037;-85
2024/02/03 05:35:57;;;;;;;5.18;3.00;;;8.70;99.90;;;;;;5010926;28;20466;-85
2024/02/03 05:38:23;;;;;;;6.68;3.30;;;8.70;99.90;;;;;;4993542;28;20117;-87
2024/02/03 05:40:49;;;;;;;6.50;3.05;;;8.70;99.90;;;;;;5010908;28;20422;-87
2024/02/03 05:43:14;;;;;;;5.78;3.28;;;8.70;99.90;;;;;;5011289;28;20027;-86
2024/02/03 05:45:40;;;;;;;4.80;2.75;;;8.70;99.90;;;;;;5011399;28;20031;-86
2024/02/03 05:48:07;;;;;;;5.13;2.60;;;8.70;99.90;;;;;;5010811;28;20089;-87
2024/02/03 05:50:33;;;;;;;5.57;3.25;;;8.70;99.90;;;;;;5011066;28;20030;-90
2024/02/03 05:52:59;;;;;;;7.22;3.35;;;8.70;99.90;;;;;;4990048;28;20030;-90
2024/02/03 05:55:24;;;;;;;9.88;3.60;;;8.70;99.90;;;;;;4995666;28;20035;-90
2024/02/03 05:57:52;;;;;;;5.93;3.50;;;8.70;99.90;;;;;;5000416;28;20030;-88
2024/02/03 06:00:18;;;;;;;6.07;3.78;;;8.60;99.90;;;;;;4995839;28;20094;-90
2024/02/03 06:02:45;;;;;;;5.32;3.22;;;8.60;99.90;;;;;;4995734;28;20472;-90
2024/02/03 06:05:11;;;;;;;6.30;3.47;;;8.60;99.90;;;;;;4990634;28;20046;-90
2024/02/03 06:07:36;;;;;;;5.30;3.17;;;8.60;99.90;;;;;;4986936;28;20086;-89
2024/02/03 06:10:02;;;;;;;7.18;3.45;;;8.60;99.90;;;;;;4994245;28;20033;-89
2024/02/03 06:12:28;;;;;;;5.60;3.45;;;8.60;99.90;;;;;;4994582;28;20030;-88
2024/02/03 06:14:53;;;;;;;5.43;3.25;;;8.60;99.90;;;;;;4995132;28;20034;-88
2024/02/03 06:17:19;;;;;;;5.13;3.00;;;8.60;99.90;;;;;;4995411;28;20022;-88
2024/02/03 06:19:44;;;;;;;3.97;2.63;;;8.60;99.90;;;;;;4987918;28;20478;-89
2024/02/03 06:22:10;;;;;;;4.93;2.90;;;8.50;99.90;;;;;;4993962;28;20039;-88
2024/02/03 06:24:36;;;;;;;4.88;2.83;;;8.50;99.90;;;;;;4986214;28;20490;-88
2024/02/03 06:27:01;;;;;;;5.88;2.72;;;8.50;99.90;;;;;;4993676;28;20125;-89
2024/02/03 06:29:27;;;;;;;4.43;2.53;;;8.50;99.90;;;;;;4994382;28;20035;-88
2024/02/03 06:31:52;;;;;;;3.53;2.30;;;8.50;99.90;;;;;;4988567;28;20026;-88
2024/02/03 06:34:18;;;;;;;2.58;1.88;;;8.50;99.90;;;;;;4994977;28;20590;-88
2024/02/03 06:36:44;;;;;;;3.00;2.10;;;8.50;99.90;;;;;;4987543;28;20041;-89
2024/02/03 06:39:09;;;;;;;5.40;2.60;;;8.50;99.90;;;;;;4994814;28;20049;-89
2024/02/03 06:41:35;;;;;;;3.95;2.65;;;8.40;99.90;;;;;;4986127;28;20029;-88
2024/02/03 06:44:01;;;;;;;5.47;2.60;;;8.40;99.90;;;;;;4994619;28;20033;-88
2024/02/03 06:46:26;;;;;;;2.80;1.92;;;8.40;99.90;;;;;;4993005;28;20038;-89
2024/02/03 06:48:52;;;;;;;5.60;2.30;;;8.40;99.90;;;;;;4988077;28;20026;-87
2024/02/03 06:51:18;;;;;;;3.33;1.88;;;8.30;99.90;;;;;;4993974;28;20026;-90
2024/02/03 06:53:43;;;;;;;3.60;2.10;;;8.30;99.90;;;;;;4987119;28;20066;-90
2024/02/03 06:56:09;;;;;;;3.50;2.22;;;8.30;99.90;;;;;;4993580;28;20536;-90
2024/02/03 06:58:35;;;;;;;3.38;2.10;;;8.30;99.90;;;;;;4993779;28;20026;-90
2024/02/03 07:01:00;;;;;;;3.72;2.30;;;8.30;99.90;;;;;;4994355;28;20027;-90
2024/02/03 07:03:27;;;;;;;3.22;2.10;;;8.30;99.90;;;;;;4992497;28;20023;-90
2024/02/03 07:05:53;;;;;;;4.70;1.98;;;8.30;99.90;;;;;;4987171;28;20077;-89
2024/02/03 07:08:19;;;;;;;3.45;2.08;;;8.30;99.90;;;;;;4993732;28;20033;-87
2024/02/03 07:10:44;;;;;;;4.75;2.47;;;8.30;99.90;;;;;;4987017;28;20026;-87
2024/02/03 07:13:10;;;;;;;3.88;2.67;;;8.30;99.90;;;;;;4993416;28;20460;-87
2024/02/03 07:15:36;;;;;;;3.88;2.10;;;8.30;99.90;;;;;;4986100;28;20034;-87
2024/02/03 07:18:02;;;;;;;3.50;2.03;;;8.30;99.90;;;;;;4994415;28;20033;-85
2024/02/03 07:20:27;;;;;;;3.00;1.77;;;8.30;99.90;;;;;;4994562;28;20030;-86
2024/02/03 07:22:53;;;;;;;3.67;2.08;;;8.30;99.90;;;;;;4987791;28;20117;-87
2024/02/03 07:25:19;;;;;;;3.58;2.10;;;8.30;99.90;;;;;;4993679;28;20061;-85
2024/02/03 07:27:44;;;;;;;3.22;2.00;;;8.30;99.90;;;;;;4986870;28;20376;-86
2024/02/03 07:30:10;;;;;;;2.92;1.65;;;8.30;99.90;;;;;;4993115;28;20034;-85
2024/02/03 07:32:36;;;;;;;3.45;2.10;;;8.30;99.90;;;;;;4994359;28;20019;-85
2024/02/03 07:35:02;;;;;;;3.33;1.60;;;8.30;99.90;;;;;;4988540;28;20088;-86
2024/02/03 07:37:28;;;;;;;2.88;1.73;;;8.30;99.90;;;;;;4993735;28;20027;-84
2024/02/03 07:39:53;;;;;;;2.60;1.50;;;8.20;99.90;;;;;;4987715;28;20033;-94
2024/02/03 07:42:19;;;;;;;3.17;1.60;;;8.30;99.90;;;;;;4993637;28;20529;-85
2024/02/03 07:44:48;;;;;;;4.40;1.83;;;8.30;99.90;;;;;;4986326;28;20068;-87
2024/02/03 07:47:13;;;;;;;2.17;1.38;;;8.20;99.90;;;;;;4992868;28;20102;-86
2024/02/03 07:49:39;;;;;;;2.58;1.35;;;8.20;99.90;;;;;;4985856;28;20052;-86
2024/02/03 07:52:05;;;;;;;3.45;1.70;;;8.20;99.90;;;;;;4994044;28;20027;-86
2024/02/03 07:54:32;;;;;;;2.25;1.48;;;8.20;99.90;;;;;;4993649;28;20058;-85
2024/02/03 07:56:57;;;;;;;2.78;1.48;;;8.20;99.90;;;;;;4997906;28;20468;-85
2024/02/03 07:59:23;;;;;;;2.10;1.38;;;8.20;99.90;;;;;;4995390;28;20022;-85
2024/02/03 08:01:49;;;;;;;3.25;1.58;;;8.20;99.90;;;;;;4991064;28;20022;-84
2024/02/03 08:04:14;;;;;;;2.75;1.35;;;8.20;99.90;;;;;;4996484;28;20062;-86
2024/02/03 08:06:40;;;;;;;2.78;1.23;;;8.20;99.90;;;;;;4997746;28;20041;-83
2024/02/03 08:09:06;;;;;;;1.90;1.10;;;8.20;99.90;;;;;;4981072;28;20030;-85
2024/02/03 08:11:32;;;;;;;1.75;1.10;;;8.20;99.90;;;;;;4980319;28;20022;-84
2024/02/03 08:13:58;;;;;;;3.17;1.40;;;8.20;99.90;;;;;;4980036;28;20037;-84
2024/02/03 08:16:23;;;;;;;1.50;1.00;;;8.20;99.90;;;;;;4980605;28;20044;-86
2024/02/03 08:18:49;;;;;;;3.80;1.17;;;8.20;99.90;;;;;;4980485;28;20026;-86
2024/02/03 08:21:14;;;;;;;2.20;1.05;;;8.20;99.90;;;;;;4980257;28;20026;-85
2024/02/03 08:23:40;;;;;;;2.22;1.08;;;8.20;99.90;;;;;;4980204;28;20023;-83
2024/02/03 08:26:05;;;;;;;1.50;0.95;;;8.20;99.90;;;;;;4997062;28;20042;-84
2024/02/03 08:28:31;;;;;;;1.85;1.10;;;8.20;99.90;;;;;;4980428;28;20519;-83
2024/02/03 08:30:57;;;;;;;1.80;1.27;;;8.30;99.90;;;;;;4979936;28;20034;-88
2024/02/03 08:33:25;;;;;;;6.10;1.23;;;8.30;99.90;;;;;;4980042;28;20027;-86
2024/02/03 08:35:51;;;;;;;2.17;0.88;;;8.30;99.90;;;;;;4997404;28;20070;-88
2024/02/03 08:38:17;;;;;;;1.48;1.00;;;8.30;99.90;;;;;;4979940;28;20289;-86
2024/02/03 08:40:44;;;;;;;2.67;0.90;;;8.40;99.90;;;;;;4997136;28;20026;-85
2024/02/03 08:43:10;;;;;;;2.40;1.08;;;8.40;99.90;;;;;;4979453;28;20034;-85
2024/02/03 08:45:35;;;;;;;1.85;0.90;;;8.40;99.90;;;;;;4997057;28;20026;-84
2024/02/03 08:48:01;;;;;;;1.95;0.90;;;8.40;99.90;;;;;;4979795;28;20023;-85
2024/02/03 08:50:27;;;;;;;1.08;0.75;;;8.40;99.90;;;;;;4997485;28;20030;-85
2024/02/03 08:52:52;;;;;;;1.58;0.80;;;8.50;99.90;;;;;;4997136;28;20033;-85
2024/02/03 08:55:18;;;;;;;1.73;1.08;;;8.50;99.90;;;;;;4995492;28;20034;-87
2024/02/03 08:57:44;;;;;;;1.15;0.70;;;8.50;99.90;;;;;;4975979;28;20104;-83
2024/02/03 09:00:10;;;;;;;1.38;0.60;;;8.50;99.90;;;;;;4996310;28;20069;-85
2024/02/03 09:02:35;;;;;;;2.65;0.90;;;8.60;99.90;;;;;;4979197;28;20027;-85
2024/02/03 09:05:02;;;;;;;1.05;0.80;;;8.60;99.90;;;;;;4983873;28;20057;-86
2024/02/03 09:07:28;;;;;;;1.05;0.60;;;8.70;99.90;;;;;;4993169;28;20133;-88
2024/02/03 09:09:53;;;;;;;1.02;0.50;;;8.60;99.90;;;;;;4989175;28;20109;-81
2024/02/03 09:12:20;;;;;;;1.52;0.70;;;8.70;99.90;;;;;;4995406;28;20027;-80
2024/02/03 09:14:46;;;;;;;1.52;0.70;;;8.70;99.90;;;;;;4995359;28;20034;-83
2024/02/03 09:17:12;;;;;;;0.82;0.80;;;8.70;99.90;;;;;;4982487;28;20073;-86
2024/02/03 09:19:38;;;;;;;2.00;0.90;;;8.70;99.90;;;;;;4974709;28;20026;-87
2024/02/03 09:22:03;;;;;;;0.82;0.60;;;8.70;99.90;;;;;;4975022;28;20054;-83
2024/02/03 09:24:29;;;;;;;1.20;0.70;;;8.70;99.90;;;;;;4974985;28;20029;-84
2024/02/03 09:26:54;;;;;;;1.20;0.70;;;8.70;99.90;;;;;;4976377;28;20333;-89
2024/02/03 09:29:20;;;;;;;1.98;1.00;;;8.70;99.90;;;;;;4988895;28;20061;-89
2024/02/03 09:31:45;;;;;;;1.10;0.70;;;8.80;99.90;;;;;;4994377;28;20018;-88
2024/02/03 09:34:11;;;;;;;1.52;0.80;;;8.80;99.90;;;;;;4995055;28;20053;-86
2024/02/03 09:36:40;;;;;;;2.42;1.17;;;8.80;99.90;;;;;;4994951;28;20066;-86
2024/02/03 09:39:07;;;;;;;3.38;1.30;;;8.80;99.90;;;;;;4994028;28;20033;-85
2024/02/03 09:41:33;;;;;;;12.43;1.75;;;8.80;99.90;;;;;;4994507;28;20022;-87
2024/02/03 09:43:59;;;;;;;2.40;1.23;;;8.80;99.90;;;;;;4994442;28;20027;-81
2024/02/03 09:46:25;;;;;;;1.52;1.10;;;8.80;99.90;;;;;;4994202;28;20057;-83
2024/02/03 09:48:50;;;;;;;2.85;1.45;;;8.80;99.90;;;;;;4995323;28;20097;-85
2024/02/03 09:51:16;;;;;;;2.97;1.70;;;8.80;99.90;;;;;;4993923;28;20026;-84
2024/02/03 09:53:44;;;;;;;3.13;1.63;;;8.70;99.90;;;;;;4994341;28;20455;-85
2024/02/03 09:56:10;;;;;;;2.10;1.35;;;8.80;99.90;;;;;;4994891;28;20053;-86
2024/02/03 09:58:36;;;;;;;3.08;1.95;;;8.80;99.90;;;;;;4994460;28;20065;-87
2024/02/03 10:01:02;;;;;;;4.20;2.15;;;8.70;99.90;;;;;;4994435;28;20105;-85
2024/02/03 10:03:28;;;;;;;2.92;2.03;;;8.80;99.90;;;;;;4994498;28;20173;-87
2024/02/03 10:06:01;;;;;;;4.68;2.58;;;8.80;99.90;;;;;;4993556;28;20133;-84
2024/02/03 10:08:28;;;;;;;6.50;3.15;;;8.80;99.90;;;;;;4994036;28;20039;-80
2024/02/03 10:10:54;;;;;;;4.82;2.60;;;8.80;99.90;;;;;;4993667;28;20070;-80
2024/02/03 10:13:19;;;;;;;3.08;2.00;;;8.80;99.90;;;;;;4993176;28;20026;-81
2024/02/03 10:15:56;;;;;;;5.63;2.28;;;8.80;99.90;;;;;;4994959;28;20052;-86
2024/02/03 10:18:22;;;;;;;3.28;2.05;;;8.90;99.90;;;;;;4993275;28;20035;-81
2024/02/03 10:20:48;;;;;;;2.60;1.58;;;8.90;99.90;;;;;;4993930;28;20138;-82
2024/02/03 10:23:13;;;;;;;3.38;1.70;;;9.00;99.90;;;;;;5009749;28;20015;-83
2024/02/03 10:25:39;;;;;;;2.83;1.70;;;9.00;99.90;;;;;;4991056;28;20047;-84
2024/02/03 10:28:05;;;;;;;2.72;1.58;;;9.10;99.90;;;;;;4977275;28;20488;-84
2024/02/03 10:30:35;;;;;;;4.80;1.88;;;9.10;99.90;;;;;;4973674;28;20354;-87
2024/02/03 10:33:02;;;;;;;2.70;1.58;;;9.10;99.90;;;;;;4993433;28;20030;-85
2024/02/03 10:35:33;;;;;;;2.58;1.55;;;9.20;99.90;;;;;;4982542;28;20034;-83
2024/02/03 10:37:59;;;;;;;3.53;1.50;;;9.10;99.90;;;;;;4974893;28;20039;-85
2024/02/03 10:40:28;;;;;;;4.13;1.58;;;9.10;99.90;;;;;;4973255;28;20030;-82
2024/02/03 10:42:54;;;;;;;2.10;1.30;;;9.10;99.90;;;;;;4973978;28;20038;-86
2024/02/03 10:45:31;;;;;;;3.00;1.80;;;9.10;99.90;;;;;;4973547;28;20487;-86
2024/02/03 10:47:58;;;;;;;2.38;1.55;;;9.10;99.90;;;;;;4986332;28;20030;-82
2024/02/03 10:50:36;;;;;;;3.00;1.50;;;9.10;99.90;;;;;;4993381;28;20042;-80
2024/02/03 10:53:09;;;;;;;2.90;1.70;;;9.10;99.90;;;;;;4992733;28;20030;-84
2024/02/03 10:55:41;;;;;;;2.70;1.83;;;9.10;99.90;;;;;;4993226;28;20030;-82
2024/02/03 10:58:07;;;;;;;2.90;1.58;;;9.10;99.90;;;;;;4992395;28;20029;-84
2024/02/03 11:00:33;;;;;;;2.60;1.30;;;9.10;99.90;;;;;;4992984;28;20037;-83
2024/02/03 11:03:00;;;;;;;3.00;1.02;;;9.10;99.90;;;;;;4993925;28;20030;-82
2024/02/03 11:05:27;;;;;;;3.10;1.50;;;9.10;99.90;;;;;;4992320;28;20412;-79
2024/02/03 11:07:53;;;;;;;2.25;1.33;;;9.20;99.90;;;;;;4993954;28;20061;-81
2024/02/03 11:10:27;;;;;;;2.40;1.50;;;9.10;99.90;;;;;;4992935;28;20061;-81
2024/02/03 11:12:52;;;;;;;3.60;1.70;;;9.10;99.90;;;;;;4993242;28;20077;-81
2024/02/03 11:15:18;;;;;;;2.60;1.50;;;9.00;99.90;;;;;;4992709;28;20030;-82
2024/02/03 11:17:44;;;;;;;1.95;1.42;;;9.10;99.90;;;;;;4993179;28;20030;-82
2024/02/03 11:20:20;;;;;;;3.13;1.33;;;9.10;99.90;;;;;;4995922;28;20383;-84
2024/02/03 11:22:53;;;;;;;2.35;1.50;;;9.10;99.90;;;;;;4995556;28;20030;-83
2024/02/03 11:25:22;;;;;;;4.03;1.80;;;9.10;99.90;;;;;;4973339;28;20039;-81
2024/02/03 11:27:48;;;;;;;3.63;2.10;;;9.20;99.90;;;;;;4980247;28;20110;-82
2024/02/03 11:30:18;;;;;;;4.72;1.83;;;9.10;99.90;;;;;;4994589;28;20073;-84
2024/02/03 11:32:44;;;;;;;3.08;1.95;;;9.10;99.90;;;;;;4999879;28;20030;-84
2024/02/03 11:35:11;;;;;;;4.55;2.10;;;9.10;99.90;;;;;;4998887;28;20033;-85
2024/02/03 11:37:37;;;;;;;3.33;2.15;;;9.20;99.90;;;;;;5017102;28;20109;-84
2024/02/03 11:40:13;;;;;;;3.25;2.33;;;9.10;99.90;;;;;;5016519;28;20101;-88
2024/02/03 11:42:41;;;;;;;3.70;1.80;;;9.10;99.90;;;;;;5016949;28;20053;-86
2024/02/03 11:45:14;;;;;;;5.20;1.85;;;9.20;99.90;;;;;;4998980;28;20623;-86
2024/02/03 11:47:40;;;;;;;3.72;2.47;;;9.20;99.90;;;;;;5016447;28;20025;-86
2024/02/03 11:50:07;;;;;;;4.20;2.42;;;9.20;99.90;;;;;;4998884;28;20080;-83
2024/02/03 11:52:33;;;;;;;3.85;2.30;;;9.20;99.90;;;;;;4999508;28;20026;-85
2024/02/03 11:54:59;;;;;;;3.97;2.15;;;9.20;99.90;;;;;;4998879;28;20037;-83
2024/02/03 11:57:25;;;;;;;3.58;2.20;;;9.20;99.90;;;;;;4993573;28;20112;-83
2024/02/03 12:00:05;;;;;;;4.10;2.50;;;9.20;99.90;;;;;;4995543;28;20030;-85
2024/02/03 12:02:35;;;;;;;4.72;2.40;;;9.20;99.90;;;;;;4996366;28;20117;-88
2024/02/03 12:05:01;;;;;;;5.28;2.22;;;9.20;99.90;;;;;;4998042;28;20359;-89
2024/02/03 12:07:27;;;;;;;4.35;2.30;;;9.10;99.90;;;;;;4996381;28;20467;-89
2024/02/03 12:09:53;;;;;;;5.25;2.70;;;9.20;99.90;;;;;;4996149;28;20141;-86
2024/02/03 12:12:18;;;;;;;3.95;2.47;;;9.20;99.90;;;;;;5011572;28;20419;-89
2024/02/03 12:14:44;;;;;;;4.05;2.47;;;9.20;99.90;;;;;;4995572;28;20040;-87
2024/02/03 12:17:10;;;;;;;3.55;2.42;;;9.20;99.90;;;;;;4996573;28;20526;-87
2024/02/03 12:19:36;;;;;;;3.38;2.28;;;9.20;99.90;;;;;;5012766;28;20042;-86
2024/02/03 12:22:02;;;;;;;3.72;2.30;;;9.20;99.90;;;;;;5012378;28;20034;-87
2024/02/03 12:24:28;;;;;;;5.10;2.70;;;9.20;99.90;;;;;;4995685;28;20036;-83
2024/02/03 12:26:54;;;;;;;4.63;2.53;;;9.20;99.90;;;;;;4995767;28;20030;-84
2024/02/03 12:29:20;;;;;;;4.35;2.53;;;9.20;99.90;;;;;;4995386;28;20034;-85
2024/02/03 12:31:45;;;;;;;4.30;2.38;;;9.30;99.90;;;;;;4995348;28;20026;-84
2024/02/03 12:34:11;;;;;;;4.88;2.40;;;9.30;99.90;;;;;;4995301;28;20383;-86
2024/02/03 12:36:36;;;;;;;4.22;2.00;;;9.30;99.90;;;;;;4995714;28;20045;-86
2024/02/03 12:39:02;;;;;;;3.50;2.20;;;9.30;99.90;;;;;;4995592;28;20037;-83
2024/02/03 12:41:28;;;;;;;2.45;1.80;;;9.30;99.90;;;;;;4996203;28;20086;-83
2024/02/03 12:43:53;;;;;;;2.70;1.80;;;9.30;99.90;;;;;;4995701;28;20034;-82
2024/02/03 12:46:20;;;;;;;2.70;1.75;;;9.30;99.90;;;;;;4995281;28;20368;-83
2024/02/03 12:48:46;;;;;;;1.98;1.70;;;9.40;99.90;;;;;;4996058;28;20027;-86
2024/02/03 12:51:12;;;;;;;3.72;1.90;;;9.40;99.90;;;;;;5011798;28;20546;-87